Portada
METAR-TAF:

METAR-TAF

Aeroports :

Lawrence J. Timmerman Airport

Milwaukee, Wisconsin, Estats Units d'Amèrica

latitud: 43-07N, longitud: 088-02W, altitud: 227 m

Observació

L'informe es va fer fa 19 minuts, a les 12:45 UTC
Vent 3 kt del Nord-Est
Temperatura 16°C
Humitat 88%
Pressió 1014 hPa
Visibilitat: 4.8 km
Cel cobert a una alçada de 400 ft
plugim

METAR: KMWC 201245Z 05003KT 3SM DZ OVC004 16/14 A2993

Hora: 08:04 (13:04 UTC)


TAF: manca

Observacions i pronòstics meteorològics de més de 4000 aeroports (METAR i TAF).

Les estacions disponibles són els punts grocs i vermells al mapa.

Posi el ratolí al punt desitjat per veure el nom de l'estació.

Feu clic per veure les observacions i els pronòstics meteorològics.

Per canviar el mapa: feu clic els botons verds amb una creu de color negre per apropar; al botó verd amb un guió per allunyar la imatge; o en les fletxes verdes per a mapes adjacents.


METAR-TAF: